Time;durP1;ratioP1;P1;durP2;ratioP2;P2;SDS_P1;SDS_P2;PMS_P1;PMS_P2;Temp;Humidity;BMP_temperature;BMP_pressure;BME280_temperature;BME280_humidity;BME280_pressure;Samples;Min_cycle;Max_cycle;Signal;HPM_P1;HPM_P2
2022/11/08 00:03:50;;;;;;;;;;;;;;;20.83;41.10;97329.69;5157774;27;19914;-29
2022/11/08 00:14:27;;;;;;;;;;;;;;;20.84;40.81;97337.50;5157790;27;19914;-29
2022/11/08 00:16:52;;;;;;;;;;;;;;;20.82;41.05;97333.69;5157565;27;19907;-30
2022/11/08 00:19:20;;;;;;;;;;;;;;;20.77;41.18;97335.13;5157436;27;19935;-29
2022/11/08 00:21:48;;;;;;;;;;;;;;;20.78;40.93;97339.38;5157456;27;19914;-29
2022/11/08 00:24:13;;;;;;;;;;;;;;;20.78;40.93;97336.63;5157358;27;20359;-30
2022/11/08 00:26:38;;;;;;;;;;;;;;;20.75;40.96;97338.34;5157284;27;19917;-29
2022/11/08 00:29:03;;;;;;;;;;;;;;;20.71;40.98;97335.00;5157545;27;19913;-30
2022/11/08 00:31:29;;;;;;;;;;;;;;;20.72;40.77;97335.78;5157247;27;19932;-29
2022/11/08 00:33:54;;;;;;;;;;;;;;;20.77;40.98;97343.41;5157012;27;20427;-30
2022/11/08 00:36:19;;;;;;;;;;;;;;;20.76;40.88;97341.88;5138487;27;19918;-29
2022/11/08 00:38:45;;;;;;;;;;;;;;;20.73;40.93;97334.53;5157410;27;21443;-29
2022/11/08 00:41:11;;;;;;;;;;;;;;;20.75;40.71;97340.34;5157232;27;19907;-29
2022/11/08 00:43:36;;;;;;;;;;;;;;;20.68;40.74;97341.47;5156813;27;20302;-29
2022/11/08 00:46:01;;;;;;;;;;;;;;;20.72;40.90;97336.53;5156921;27;20352;-30
2022/11/08 00:48:26;;;;;;;;;;;;;;;20.75;40.85;97343.09;5156851;27;19929;-30
2022/11/08 00:50:52;;;;;;;;;;;;;;;20.72;40.72;97339.28;5156791;27;19907;-30
2022/11/08 00:53:17;;;;;;;;;;;;;;;20.65;40.97;97338.88;5156874;27;20259;-29
2022/11/08 00:55:42;;;;;;;;;;;;;;;20.67;40.85;97336.41;5157223;27;19913;-29
2022/11/08 00:58:08;;;;;;;;;;;;;;;20.73;40.59;97345.56;5156798;27;20393;-29
2022/11/08 01:00:33;;;;;;;;;;;;;;;20.67;40.85;97334.41;5156873;27;19907;-30
2022/11/08 01:05:42;;;;;;;;;;;;;;;20.69;40.88;97336.72;5156449;27;19918;-30
2022/11/08 01:08:08;;;;;;;;;;;;;;;20.65;40.91;97331.38;5136684;27;19907;-30
2022/11/08 01:10:34;;;;;;;;;;;;;;;20.63;41.20;97327.59;5134301;27;19907;-30
2022/11/08 01:12:59;;;;;;;;;;;;;;;20.58;41.05;97331.75;5135717;27;20390;-31
2022/11/08 01:15:24;;;;;;;;;;;;;;;20.63;41.17;97327.59;5135728;27;19911;-30
2022/11/08 01:17:49;;;;;;;;;;;;;;;20.68;41.14;97327.69;5135078;27;19918;-29
2022/11/08 01:20:15;;;;;;;;;;;;;;;20.65;41.00;97317.59;5135090;27;19915;-31
2022/11/08 01:22:40;;;;;;;;;;;;;;;20.63;41.29;97327.59;5135840;27;19911;-30
2022/11/08 01:25:06;;;;;;;;;;;;;;;20.62;41.12;97317.78;5135427;27;20256;-29
2022/11/08 01:27:42;;;;;;;;;;;;;;;20.67;40.93;97317.88;5117224;27;19907;-29
2022/11/08 01:30:08;;;;;;;;;;;;;;;20.65;41.16;97314.06;5135364;27;19907;-29
2022/11/08 01:32:33;;;;;;;;;;;;;;;20.59;41.24;97327.00;5135288;27;19914;-30
2022/11/08 01:34:59;;;;;;;;;;;;;;;20.56;41.29;97322.41;5135357;27;19911;-31
2022/11/08 01:37:24;;;;;;;;;;;;;;;20.54;41.23;97319.38;5135625;27;20370;-29
2022/11/08 01:39:49;;;;;;;;;;;;;;;20.58;41.03;97314.44;5135247;27;19911;-29
2022/11/08 01:42:15;;;;;;;;;;;;;;;20.58;40.87;97314.44;5135249;27;19907;-29
2022/11/08 01:45:06;;;;;;;;;;;;;;;20.56;40.79;97306.66;5135492;27;19907;-29
2022/11/08 01:47:32;;;;;;;;;;;;;;;20.52;41.12;97316.34;5131227;27;20009;-30
2022/11/08 01:50:02;;;;;;;;;;;;;;;20.46;41.06;97318.97;5135273;27;20363;-30
2022/11/08 01:52:33;;;;;;;;;;;;;;;20.48;40.92;97316.50;5134890;27;19918;-29
2022/11/08 01:55:22;;;;;;;;;;;;;;;20.56;40.68;97316.91;5134938;27;19938;-29
2022/11/08 01:57:47;;;;;;;;;;;;;;;20.52;40.71;97310.84;5124149;27;19914;-29
2022/11/08 02:00:12;;;;;;;;;;;;;;;20.50;40.67;97313.28;5134793;27;19907;-30
2022/11/08 02:02:41;;;;;;;;;;;;;;;20.53;40.53;97315.09;5134913;27;19919;-29
2022/11/08 02:05:23;;;;;;;;;;;;;;;20.44;40.87;97311.19;5134737;27;20359;-30
2022/11/08 02:07:49;;;;;;;;;;;;;;;20.53;40.58;97307.56;5135043;27;19908;-29
2022/11/08 02:10:18;;;;;;;;;;;;;;;20.42;40.64;97307.34;5134676;28;19973;-30
2022/11/08 02:12:43;;;;;;;;;;;;;;;20.48;40.61;97311.00;5134827;28;19914;-29
2022/11/08 02:15:09;;;;;;;;;;;;;;;20.50;40.55;97313.28;5134634;28;20174;-31
2022/11/08 02:17:35;;;;;;;;;;;;;;;20.44;40.68;97308.41;5138828;27;19933;-29
2022/11/08 02:20:00;;;;;;;;;;;;;;;20.44;40.45;97305.66;5155051;27;19915;-29
2022/11/08 02:22:29;;;;;;;;;;;;;;;20.43;40.49;97304.13;5155502;27;19915;-29
2022/11/08 02:24:57;;;;;;;;;;;;;;;20.41;40.49;97295.56;5147634;27;19911;-29
2022/11/08 02:27:22;;;;;;;;;;;;;;;20.42;40.63;97299.84;5134708;28;20035;-29
2022/11/08 02:29:51;;;;;;;;;;;;;;;20.43;40.46;97303.38;5135911;27;19968;-30
2022/11/08 02:32:16;;;;;;;;;;;;;;;20.46;40.46;97301.69;5138973;27;19907;-29
2022/11/08 02:34:44;;;;;;;;;;;;;;;20.38;40.74;97301.28;5138836;27;19908;-29
2022/11/08 02:37:10;;;;;;;;;;;;;;;20.41;40.54;97305.84;5138692;27;19907;-30
2022/11/08 02:39:35;;;;;;;;;;;;;;;20.40;40.59;97296.81;5138851;27;19933;-29
2022/11/08 02:42:01;;;;;;;;;;;;;;;20.41;40.67;97306.59;5138493;27;19907;-31
2022/11/08 02:44:26;;;;;;;;;;;;;;;20.41;40.63;97301.09;5138578;27;19946;-30
2022/11/08 02:46:52;;;;;;;;;;;;;;;20.44;40.55;97304.91;5138551;27;19961;-30
2022/11/08 02:49:17;;;;;;;;;;;;;;;20.45;40.61;97300.91;5138495;27;19953;-30
2022/11/08 02:51:42;;;;;;;;;;;;;;;20.40;40.58;97305.06;5138480;27;20363;-29
2022/11/08 02:54:08;;;;;;;;;;;;;;;20.40;40.73;97305.06;5138328;27;19932;-29
2022/11/08 02:56:33;;;;;;;;;;;;;;;20.37;40.86;97305.28;5138321;27;19914;-30
2022/11/08 02:58:58;;;;;;;;;;;;;;;20.31;40.93;97305.13;5138614;27;19908;-31
2022/11/08 03:01:24;;;;;;;;;;;;;;;20.32;40.72;97308.63;5138322;27;19933;-29
2022/11/08 03:03:49;;;;;;;;;;;;;;;20.38;40.64;97299.28;5119719;27;20001;-29
2022/11/08 03:06:14;;;;;;;;;;;;;;;20.34;40.80;97317.19;5138134;27;19918;-32
2022/11/08 03:08:40;;;;;;;;;;;;;;;20.36;40.59;97312.78;5138337;27;20018;-30
2022/11/08 03:11:05;;;;;;;;;;;;;;;20.37;40.52;97303.28;5138226;27;20336;-29
2022/11/08 03:13:30;;;;;;;;;;;;;;;20.34;40.58;97304.19;5138101;27;19922;-29
2022/11/08 03:15:56;;;;;;;;;;;;;;;20.33;40.42;97310.16;5137934;27;19907;-29
2022/11/08 03:18:21;;;;;;;;;;;;;;;20.34;40.49;97311.69;5138191;27;19914;-30
2022/11/08 03:20:46;;;;;;;;;;;;;;;20.37;40.46;97308.78;5137490;27;19921;-30
2022/11/08 03:23:12;;;;;;;;;;;;;;;20.35;40.53;97304.94;5137766;27;19937;-30
2022/11/08 03:25:38;;;;;;;;;;;;;;;20.36;40.47;97303.75;5137800;27;19957;-31
2022/11/08 03:28:04;;;;;;;;;;;;;;;20.30;40.75;97311.84;5137878;27;19960;-32
2022/11/08 03:30:30;;;;;;;;;;;;;;;20.30;40.85;97311.09;5137791;27;19998;-31
2022/11/08 03:32:55;;;;;;;;;;;;;;;20.34;40.66;97309.69;5137569;27;19950;-29
2022/11/08 03:35:21;;;;;;;;;;;;;;;20.35;40.66;97302.19;5137614;27;19930;-30
2022/11/08 03:37:53;;;;;;;;;;;;;;;20.29;40.76;97310.31;5137656;27;20277;-29
2022/11/08 03:40:19;;;;;;;;;;;;;;;20.28;40.70;97308.81;5137431;27;19907;-29
2022/11/08 03:42:45;;;;;;;;;;;;;;;20.28;40.79;97303.28;5137001;27;19967;-29
2022/11/08 03:45:10;;;;;;;;;;;;;;;20.30;40.90;97306.34;5137215;27;19916;-30
2022/11/08 03:47:37;;;;;;;;;;;;;;;20.33;40.62;97307.41;5137460;27;19932;-31
2022/11/08 03:50:03;;;;;;;;;;;;;;;20.26;40.82;97311.28;5137645;27;20386;-29
2022/11/08 03:52:28;;;;;;;;;;;;;;;20.32;40.86;97312.16;5137294;27;19907;-31
2022/11/08 03:54:53;;;;;;;;;;;;;;;20.32;40.76;97312.16;5137229;27;19907;-30
2022/11/08 03:57:19;;;;;;;;;;;;;;;20.30;40.90;97311.09;5137284;27;19911;-29
2022/11/08 03:59:44;;;;;;;;;;;;;;;20.28;40.75;97308.03;5137108;27;19907;-30
2022/11/08 04:02:09;;;;;;;;;;;;;;;20.24;40.93;97312.97;5137189;27;20006;-30
2022/11/08 04:04:34;;;;;;;;;;;;;;;20.25;40.86;97314.50;5137156;27;20248;-30
2022/11/08 04:07:00;;;;;;;;;;;;;;;20.32;40.62;97312.16;5137206;27;19922;-29
2022/11/08 04:09:25;;;;;;;;;;;;;;;20.21;40.88;97311.16;5118624;27;19914;-29
2022/11/08 04:17:18;;;;;;;;;;;;;;;20.27;40.43;97304.56;5137119;27;19960;-30
2022/11/08 04:22:27;;;;;;;;;;;;;;;20.26;40.68;97310.53;5136643;27;19999;-29
2022/11/08 04:24:52;;;;;;;;;;;;;;;20.19;40.72;97314.38;5136618;27;20317;-29
2022/11/08 04:27:17;;;;;;;;;;;;;;;20.19;40.72;97306.13;5136660;27;19907;-30
2022/11/08 04:29:43;;;;;;;;;;;;;;;20.21;40.75;97309.16;5136567;27;19914;-29
2022/11/08 04:32:08;;;;;;;;;;;;;;;20.26;40.70;97316.03;5136556;27;19913;-29
2022/11/08 04:34:34;;;;;;;;;;;;;;;20.21;40.77;97309.16;5136382;27;19907;-29
2022/11/08 04:36:59;;;;;;;;;;;;;;;20.30;40.63;97311.09;5136315;27;19970;-30
2022/11/08 04:39:24;;;;;;;;;;;;;;;20.27;40.62;97312.06;5136615;27;20332;-29
2022/11/08 04:41:49;;;;;;;;;;;;;;;20.25;40.70;97304.25;5136376;27;19963;-29
2022/11/08 04:44:17;;;;;;;;;;;;;;;20.26;40.55;97303.03;5135765;27;19907;-29
2022/11/08 04:46:43;;;;;;;;;;;;;;;20.22;40.69;97298.91;5136244;27;20005;-29
2022/11/08 04:49:09;;;;;;;;;;;;;;;20.28;40.46;97302.53;5136264;27;19907;-30
2022/11/08 04:51:34;;;;;;;;;;;;;;;20.26;40.46;97300.28;5136217;27;20374;-29
2022/11/08 04:54:00;;;;;;;;;;;;;;;20.23;40.48;97306.72;5135942;27;20005;-29
2022/11/08 04:56:27;;;;;;;;;;;;;;;20.24;40.60;97301.97;5135956;27;19914;-31
2022/11/08 04:58:53;;;;;;;;;;;;;;;20.18;40.65;97310.09;5135901;27;19907;-30
2022/11/08 05:01:20;;;;;;;;;;;;;;;20.18;40.77;97303.81;5117493;27;20393;-30
2022/11/08 05:03:46;;;;;;;;;;;;;;;20.24;40.50;97311.00;5135771;27;19907;-29
2022/11/08 05:06:13;;;;;;;;;;;;;;;20.26;40.55;97310.53;5135799;27;19935;-29
2022/11/08 05:08:38;;;;;;;;;;;;;;;20.21;40.67;97314.69;5135761;27;19911;-29
2022/11/08 05:11:05;;;;;;;;;;;;;;;20.16;40.86;97314.53;5135748;27;19907;-30
2022/11/08 05:13:31;;;;;;;;;;;;;;;20.12;40.92;97311.22;5135988;27;19911;-31
2022/11/08 05:16:00;;;;;;;;;;;;;;;20.20;40.75;97306.88;5135891;27;19913;-29
2022/11/08 05:18:26;;;;;;;;;;;;;;;20.20;40.59;97307.66;5135678;27;19933;-29
2022/11/08 05:23:39;;;;;;;;;;;;;;;20.08;40.82;97311.38;5135876;27;19915;-30
2022/11/08 05:26:04;;;;;;;;;;;;;;;20.18;40.52;97307.34;5135376;27;19911;-30
2022/11/08 05:28:29;;;;;;;;;;;;;;;20.07;40.75;97296.84;5135379;27;19918;-29
2022/11/08 05:30:55;;;;;;;;;;;;;;;20.10;40.71;97303.44;5135695;27;19907;-30
2022/11/08 05:33:21;;;;;;;;;;;;;;;20.20;40.51;97304.13;5135282;27;19929;-29
2022/11/08 05:35:47;;;;;;;;;;;;;;;20.14;40.82;97301.28;5135540;27;19907;-29
2022/11/08 05:38:13;;;;;;;;;;;;;;;20.16;40.75;97296.03;5135342;27;19907;-29
2022/11/08 05:40:38;;;;;;;;;;;;;;;20.12;41.01;97294.69;5135528;27;19908;-29
2022/11/08 05:43:03;;;;;;;;;;;;;;;20.10;41.02;97300.66;5135223;27;19907;-31
2022/11/08 05:45:29;;;;;;;;;;;;;;;20.10;40.93;97300.66;5134983;27;19951;-29
2022/11/08 05:47:56;;;;;;;;;;;;;;;20.04;41.22;97306.03;5135211;27;19908;-29
2022/11/08 05:50:21;;;;;;;;;;;;;;;20.05;41.07;97312.31;5134981;27;19940;-30
2022/11/08 05:52:47;;;;;;;;;;;;;;;20.11;41.06;97301.44;5135036;27;20002;-29
2022/11/08 05:55:14;;;;;;;;;;;;;;;20.12;40.94;97311.97;5134889;27;19911;-29
2022/11/08 05:57:42;;;;;;;;;;;;;;;20.11;40.90;97309.69;5135044;27;19946;-31
2022/11/08 06:00:08;;;;;;;;;;;;;;;20.06;41.07;97309.09;5134791;27;19911;-29
2022/11/08 06:02:33;;;;;;;;;;;;;;;20.07;41.15;97315.38;5137979;27;20033;-29
2022/11/08 06:04:59;;;;;;;;;;;;;;;20.13;41.05;97319.03;5148723;27;20009;-29
2022/11/08 06:07:25;;;;;;;;;;;;;;;20.05;41.25;97313.09;5151158;27;19907;-30
2022/11/08 06:09:50;;;;;;;;;;;;;;;20.09;41.11;97312.91;5133014;28;19915;-29
2022/11/08 06:12:15;;;;;;;;;;;;;;;20.13;41.08;97313.50;5132904;28;19907;-29
2022/11/08 06:14:41;;;;;;;;;;;;;;;20.14;40.98;97317.78;5130466;28;19960;-29
2022/11/08 06:17:06;;;;;;;;;;;;;;;20.16;41.02;97320.81;5132839;28;20298;-29
2022/11/08 06:19:31;;;;;;;;;;;;;;;20.13;41.18;97323.75;5134483;27;20263;-30
2022/11/08 06:21:56;;;;;;;;;;;;;;;20.05;41.26;97323.34;5134775;27;19950;-31
2022/11/08 06:24:22;;;;;;;;;;;;;;;20.00;41.44;97326.75;5134792;27;19919;-30
2022/11/08 06:26:47;;;;;;;;;;;;;;;19.98;41.51;97323.69;5153007;27;19922;-31
2022/11/08 06:29:12;;;;;;;;;;;;;;;20.08;41.40;97333.41;5153353;27;20367;-30
2022/11/08 06:31:38;;;;;;;;;;;;;;;20.05;41.51;97328.84;5153466;27;19937;-29
2022/11/08 06:34:03;;;;;;;;;;;;;;;20.01;41.61;97329.03;5153407;27;19918;-29
2022/11/08 06:36:28;;;;;;;;;;;;;;;20.02;41.52;97329.78;5153383;27;19997;-30
2022/11/08 06:38:54;;;;;;;;;;;;;;;19.94;41.80;97331.34;5153060;27;19917;-29
2022/11/08 06:41:20;;;;;;;;;;;;;;;19.97;41.73;97336.69;5153406;27;20386;-30
2022/11/08 06:43:45;;;;;;;;;;;;;;;20.01;41.59;97329.03;5153245;27;19907;-30
2022/11/08 06:46:10;;;;;;;;;;;;;;;20.05;41.71;97339.84;5153168;27;19911;-29
2022/11/08 06:48:36;;;;;;;;;;;;;;;20.07;41.54;97342.91;5153182;27;19911;-30
2022/11/08 06:51:01;;;;;;;;;;;;;;;20.08;41.65;97345.19;5152908;27;19911;-29
2022/11/08 06:53:30;;;;;;;;;;;;;;;20.12;41.46;97349.78;5147430;27;20320;-29
2022/11/08 06:55:57;;;;;;;;;;;;;;;20.09;41.67;97345.97;5150304;27;19995;-29
2022/11/08 06:58:22;;;;;;;;;;;;;;;20.13;41.66;97357.56;5155331;27;19995;-29
2022/11/08 07:00:47;;;;;;;;;;;;;;;20.07;41.80;97356.69;5155118;27;19943;-30
2022/11/08 07:03:14;;;;;;;;;;;;;;;20.07;41.87;97354.69;5155205;27;20112;-29
2022/11/08 07:05:39;;;;;;;;;;;;;;;20.08;41.83;97355.44;5154982;27;20322;-29
2022/11/08 07:08:05;;;;;;;;;;;;;;;20.11;41.72;97354.53;5155107;27;19922;-29
2022/11/08 07:10:31;;;;;;;;;;;;;;;20.14;41.78;97359.09;5155208;27;19907;-29
2022/11/08 07:12:57;;;;;;;;;;;;;;;20.07;41.90;97362.19;5155236;27;19930;-29
2022/11/08 07:15:23;;;;;;;;;;;;;;;20.03;42.17;97359.59;5154761;27;20278;-30
2022/11/08 07:17:48;;;;;;;;;;;;;;;20.09;41.92;97359.72;5158049;27;19907;-30
2022/11/08 07:20:13;;;;;;;;;;;;;;;20.11;41.93;97360.03;5158526;27;19915;-30
2022/11/08 07:22:39;;;;;;;;;;;;;;;20.13;42.04;97362.31;5158671;27;19911;-30
2022/11/08 07:25:04;;;;;;;;;;;;;;;20.14;42.09;97364.59;5155128;27;20425;-30
2022/11/08 07:27:29;;;;;;;;;;;;;;;20.02;42.33;97358.09;5139049;27;19915;-29
2022/11/08 07:29:55;;;;;;;;;;;;;;;20.12;42.20;97369.81;5139036;27;19911;-30
2022/11/08 07:32:20;;;;;;;;;;;;;;;20.06;42.48;97366.16;5156488;27;20005;-31
2022/11/08 07:34:45;;;;;;;;;;;;;;;20.05;42.29;97370.91;5156390;27;19917;-29
2022/11/08 07:37:10;;;;;;;;;;;;;;;20.16;42.31;97366.88;5155746;27;19910;-30
2022/11/08 07:39:36;;;;;;;;;;;;;;;20.17;42.34;97368.41;5156132;27;20389;-30
2022/11/08 07:42:01;;;;;;;;;;;;;;;20.12;42.48;97367.06;5153353;27;19969;-29
2022/11/08 07:44:26;;;;;;;;;;;;;;;20.12;42.49;97371.81;5134092;27;20278;-30
2022/11/08 07:46:52;;;;;;;;;;;;;;;20.09;42.54;97371.50;5135535;27;20377;-29
2022/11/08 07:49:17;;;;;;;;;;;;;;;20.09;42.64;97373.50;5135243;27;19911;-30
2022/11/08 07:51:42;;;;;;;;;;;;;;;20.15;42.54;97376.38;5135479;27;19911;-29
2022/11/08 07:54:07;;;;;;;;;;;;;;;20.14;42.77;97380.38;5135346;27;19921;-29
2022/11/08 07:56:33;;;;;;;;;;;;;;;20.19;42.54;97374.22;5142016;27;19979;-30
2022/11/08 07:58:58;;;;;;;;;;;;;;;20.16;42.57;97375.91;5157805;27;20378;-29
2022/11/08 08:01:23;;;;;;;;;;;;;;;20.14;42.73;97381.13;5158066;27;19907;-29
2022/11/08 08:03:49;;;;;;;;;;;;;;;20.10;42.85;97375.03;5157864;27;19907;-29
2022/11/08 08:06:14;;;;;;;;;;;;;;;20.14;42.73;97370.13;5157927;27;19911;-29
2022/11/08 08:08:39;;;;;;;;;;;;;;;20.12;42.90;97374.56;5157846;27;20418;-29
2022/11/08 08:11:05;;;;;;;;;;;;;;;20.14;42.90;97374.88;5157806;27;20361;-29
2022/11/08 08:13:30;;;;;;;;;;;;;;;20.21;42.68;97369.75;5157654;27;19919;-29
2022/11/08 08:15:56;;;;;;;;;;;;;;;20.06;43.12;97383.44;5157684;27;19907;-29
2022/11/08 08:18:21;;;;;;;;;;;;;;;20.13;43.00;97376.84;5157500;27;19942;-30
2022/11/08 08:20:47;;;;;;;;;;;;;;;20.15;43.04;97376.38;5157093;27;19915;-30
2022/11/08 08:23:12;;;;;;;;;;;;;;;20.12;43.10;97378.06;5157137;27;19960;-29
2022/11/08 08:25:37;;;;;;;;;;;;;;;20.17;43.07;97379.41;5157335;27;19921;-30
2022/11/08 08:28:04;;;;;;;;;;;;;;;20.17;43.00;97384.91;5156984;27;19994;-30
2022/11/08 08:30:30;;;;;;;;;;;;;;;19.50;45.28;97386.88;5156712;27;19926;-31
2022/11/08 08:33:03;;;;;;;;;;;;;;;19.17;47.22;97381.22;5157066;27;19932;-29
2022/11/08 08:35:28;;;;;;;;;;;;;;;19.47;46.58;97381.50;5157376;27;20001;-29
2022/11/08 08:37:56;;;;;;;;;;;;;;;19.77;45.75;97382.53;5157149;27;20315;-29
2022/11/08 08:40:22;;;;;;;;;;;;;;;19.96;45.05;97389.47;5156996;27;19930;-29
2022/11/08 08:42:47;;;;;;;;;;;;;;;20.09;44.70;97387.28;5157116;27;20354;-29
2022/11/08 08:45:12;;;;;;;;;;;;;;;20.04;44.75;97385.13;5156973;27;19936;-29
2022/11/08 08:47:38;;;;;;;;;;;;;;;20.08;44.29;97385.75;5156819;27;19914;-29
2022/11/08 08:50:04;;;;;;;;;;;;;;;19.92;44.93;97383.34;5156966;27;20362;-29
2022/11/08 08:52:29;;;;;;;;;;;;;;;20.09;44.37;97390.03;5157142;27;19907;-29
2022/11/08 08:54:54;;;;;;;;;;;;;;;20.09;44.45;97384.50;5157013;27;19953;-29
2022/11/08 08:57:19;;;;;;;;;;;;;;;20.16;44.20;97388.91;5156625;27;19914;-29
2022/11/08 08:59:45;;;;;;;;;;;;;;;20.18;44.14;97387.22;5156888;27;19914;-29
2022/11/08 09:02:10;;;;;;;;;;;;;;;20.17;44.18;97391.19;5156784;27;20319;-28
2022/11/08 09:04:36;;;;;;;;;;;;;;;20.11;44.43;97376.56;5156722;27;19961;-29
2022/11/08 09:07:01;;;;;;;;;;;;;;;20.11;44.29;97384.06;5156675;27;19958;-29
2022/11/08 09:09:27;;;;;;;;;;;;;;;20.01;44.74;97383.34;5156458;27;19907;-29
2022/11/08 09:11:52;;;;;;;;;;;;;;;20.07;44.51;97382.22;5156391;27;19907;-29
2022/11/08 09:14:17;;;;;;;;;;;;;;;20.17;44.30;97384.91;5156465;27;19932;-28
2022/11/08 09:16:42;;;;;;;;;;;;;;;20.14;44.02;97381.13;5156376;27;19907;-29
2022/11/08 09:19:08;;;;;;;;;;;;;;;20.16;44.32;97386.91;5156443;27;19907;-28
2022/11/08 09:21:34;;;;;;;;;;;;;;;20.01;44.49;97389.59;5156142;27;19960;-29
2022/11/08 09:23:59;;;;;;;;;;;;;;;20.10;44.45;97386.03;5156463;27;19918;-29
2022/11/08 09:26:24;;;;;;;;;;;;;;;20.13;44.41;97387.09;5156214;27;19961;-29
2022/11/08 09:28:49;;;;;;;;;;;;;;;20.16;44.38;97389.66;5156080;27;19906;-29
2022/11/08 09:31:15;;;;;;;;;;;;;;;20.22;44.26;97393.31;5156221;27;19907;-29
2022/11/08 09:33:41;;;;;;;;;;;;;;;20.25;44.04;97389.66;5156137;27;19993;-28
2022/11/08 09:36:07;;;;;;;;;;;;;;;20.14;44.34;97392.16;5156091;27;19951;-29
2022/11/08 09:38:33;;;;;;;;;;;;;;;20.12;44.38;97394.59;5155724;27;20293;-29
2022/11/08 09:41:01;;;;;;;;;;;;;;;20.03;44.61;97392.63;5155452;27;19913;-29
2022/11/08 09:43:29;;;;;;;;;;;;;;;20.06;44.51;97394.47;5156066;27;19989;-29
2022/11/08 09:45:56;;;;;;;;;;;;;;;20.08;44.65;97394.00;5155776;27;19917;-28
2022/11/08 09:48:33;;;;;;;;;;;;;;;19.98;44.75;97398.78;5155848;27;19907;-29
2022/11/08 09:51:19;;;;;;;;;;;;;;;19.93;44.79;97399.41;5155853;27;19910;-28
2022/11/08 09:53:48;;;;;;;;;;;;;;;20.14;44.50;97394.13;5155852;27;19907;-28
2022/11/08 09:56:20;;;;;;;;;;;;;;;20.14;44.42;97397.66;5144545;27;19911;-29
2022/11/08 09:58:51;;;;;;;;;;;;;;;20.18;44.18;97394.72;5132869;27;19911;-28
2022/11/08 10:01:16;;;;;;;;;;;;;;;20.02;44.77;97402.16;5134888;27;19908;-29
2022/11/08 10:03:45;;;;;;;;;;;;;;;20.09;44.66;97401.81;5134886;27;19907;-29
2022/11/08 10:06:20;;;;;;;;;;;;;;;20.09;44.62;97396.28;5134882;27;20379;-29
2022/11/08 10:09:05;;;;;;;;;;;;;;;20.10;44.44;97397.06;5134891;27;20320;-29
2022/11/08 10:11:43;;;;;;;;;;;;;;;20.08;45.01;97383.75;5120298;28;20017;-29
2022/11/08 10:14:08;;;;;;;;;;;;;;;20.03;45.24;97389.13;5134908;28;19954;-29
2022/11/08 10:16:48;;;;;;;;;;;;;;;20.09;44.66;97390.78;5135034;28;19907;-28
2022/11/08 10:19:14;;;;;;;;;;;;;;;20.06;44.96;97385.44;5116312;28;19907;-29
2022/11/08 10:21:52;;;;;;;;;;;;;;;20.12;44.92;97388.34;5134533;28;19927;-29
2022/11/08 10:24:26;;;;;;;;;;;;;;;19.99;45.37;97380.28;5134671;28;19960;-28
2022/11/08 10:26:53;;;;;;;;;;;;;;;20.07;44.94;97386.97;5134484;28;19911;-28
2022/11/08 10:29:20;;;;;;;;;;;;;;;19.95;46.24;97382.44;5134714;28;19907;-29
2022/11/08 10:31:46;;;;;;;;;;;;;;;19.81;46.87;97383.84;5134623;28;20263;-29
2022/11/08 10:34:14;;;;;;;;;;;;;;;19.79;46.28;97377.28;5134527;28;19914;-29
2022/11/08 10:36:39;;;;;;;;;;;;;;;19.78;47.37;97375.78;5134797;28;19907;-30
2022/11/08 10:39:04;;;;;;;;;;;;;;;19.93;45.82;97379.38;5134769;28;19914;-29
2022/11/08 10:41:42;;;;;;;;;;;;;;;19.91;46.27;97368.06;5134658;28;19915;-29
2022/11/08 10:44:19;;;;;;;;;;;;;;;19.99;45.34;97380.28;5134413;28;19915;-28
2022/11/08 10:46:49;;;;;;;;;;;;;;;19.95;45.63;97365.91;5134367;28;19941;-29
2022/11/08 10:49:36;;;;;;;;;;;;;;;20.08;45.45;97372.72;5134479;28;20380;-28
2022/11/08 10:52:21;;;;;;;;;;;;;;;19.86;45.85;97371.47;5137712;27;19930;-28
2022/11/08 10:54:48;;;;;;;;;;;;;;;20.02;45.34;97371.09;5138277;27;19961;-28
2022/11/08 10:57:34;;;;;;;;;;;;;;;19.81;45.71;97374.84;5138255;27;20394;-28
2022/11/08 11:00:15;;;;;;;;;;;;;;;19.59;46.14;97362.06;5137777;27;19956;-30
2022/11/08 11:02:41;;;;;;;;;;;;;;;19.87;45.44;97361.97;5138515;27;19911;-29
2022/11/08 11:05:16;;;;;;;;;;;;;;;19.93;45.37;97352.59;5138383;27;19960;-28
2022/11/08 11:07:55;;;;;;;;;;;;;;;19.85;45.35;97353.41;5138348;27;19907;-29
2022/11/08 11:10:30;;;;;;;;;;;;;;;20.14;44.62;97352.81;5138241;27;19918;-28
2022/11/08 11:13:13;;;;;;;;;;;;;;;20.13;44.67;97346.56;5138218;27;19915;-29
2022/11/08 11:15:57;;;;;;;;;;;;;;;19.89;45.44;97348.53;5119534;27;19952;-29
2022/11/08 11:18:24;;;;;;;;;;;;;;;20.03;44.83;97339.56;5138210;27;20321;-30
2022/11/08 11:20:57;;;;;;;;;;;;;;;20.10;44.86;97339.22;5137624;27;19916;-28
2022/11/08 11:23:22;;;;;;;;;;;;;;;19.99;45.01;97330.72;5137910;27;19908;-29
2022/11/08 11:25:51;;;;;;;;;;;;;;;19.75;45.41;97333.44;5137965;27;19934;-28
2022/11/08 11:28:16;;;;;;;;;;;;;;;19.92;45.14;97329.06;5138002;27;19907;-29
2022/11/08 11:30:46;;;;;;;;;;;;;;;19.81;45.39;97331.56;5137857;27;19907;-28
2022/11/08 11:33:22;;;;;;;;;;;;;;;19.74;45.62;97331.91;5137877;27;19997;-29
2022/11/08 11:35:50;;;;;;;;;;;;;;;19.87;45.21;97326.19;5137676;27;19907;-29
2022/11/08 11:38:33;;;;;;;;;;;;;;;19.96;44.84;97324.16;5137612;27;19994;-29
2022/11/08 11:41:03;;;;;;;;;;;;;;;20.10;44.60;97330.97;5137663;27;20375;-29
2022/11/08 11:43:34;;;;;;;;;;;;;;;19.59;45.68;97315.31;5137501;27;20328;-29
2022/11/08 11:46:09;;;;;;;;;;;;;;;19.78;45.41;97318.72;5137397;27;19911;-29
2022/11/08 11:48:45;;;;;;;;;;;;;;;19.49;46.06;97316.56;5137474;27;19908;-29
2022/11/08 11:51:11;;;;;;;;;;;;;;;19.61;45.61;97318.34;5137282;27;19907;-30
2022/11/08 11:53:37;;;;;;;;;;;;;;;19.60;45.47;97310.56;5137758;27;20289;-29
2022/11/08 11:56:06;;;;;;;;;;;;;;;19.73;45.54;97306.38;5137443;27;19915;-28
2022/11/08 11:58:51;;;;;;;;;;;;;;;19.98;44.75;97309.94;5137200;27;20336;-30
2022/11/08 12:01:35;;;;;;;;;;;;;;;19.70;45.32;97303.78;5137346;27;19915;-29
2022/11/08 12:04:24;;;;;;;;;;;;;;;20.04;44.69;97300.53;5136309;27;19912;-29
2022/11/08 12:07:05;;;;;;;;;;;;;;;20.08;44.52;97300.38;5136902;27;20536;-29
2022/11/08 12:09:34;;;;;;;;;;;;;;;20.18;44.29;97292.81;5137179;27;19914;-29
2022/11/08 12:12:19;;;;;;;;;;;;;;;20.34;43.93;97289.66;5136925;27;20437;-29
2022/11/08 12:14:54;;;;;;;;;;;;;;;20.33;43.91;97286.13;5136852;27;20255;-29
2022/11/08 12:17:22;;;;;;;;;;;;;;;20.28;43.84;97286.75;5136758;27;19908;-29
2022/11/08 12:20:04;;;;;;;;;;;;;;;20.28;43.89;97286.75;5136719;27;19954;-29
2022/11/08 12:22:38;;;;;;;;;;;;;;;20.32;43.88;97281.84;5136860;27;20435;-28
2022/11/08 12:25:06;;;;;;;;;;;;;;;20.38;43.69;97282.00;5136593;27;19907;-30
2022/11/08 12:27:44;;;;;;;;;;;;;;;20.33;43.84;97277.88;5136964;27;19915;-29
2022/11/08 12:30:13;;;;;;;;;;;;;;;20.32;43.93;97276.34;5136608;27;19907;-28
2022/11/08 12:32:44;;;;;;;;;;;;;;;20.32;43.85;97276.34;5136484;27;19907;-28
2022/11/08 12:35:28;;;;;;;;;;;;;;;19.90;44.67;97275.72;5136430;27;20075;-29
2022/11/08 12:38:01;;;;;;;;;;;;;;;19.73;45.14;97276.09;5136615;27;19997;-29
2022/11/08 12:40:32;;;;;;;;;;;;;;;20.04;44.41;97273.00;5136353;27;19908;-29
2022/11/08 12:43:00;;;;;;;;;;;;;;;20.20;44.09;97265.56;5136684;27;19915;-29
2022/11/08 12:45:25;;;;;;;;;;;;;;;20.31;43.88;97271.28;5136201;27;19963;-29
2022/11/08 12:48:06;;;;;;;;;;;;;;;20.32;43.66;97262.56;5136257;27;19997;-29
2022/11/08 12:50:49;;;;;;;;;;;;;;;20.24;44.01;97264.16;5136107;27;19941;-29
2022/11/08 12:53:23;;;;;;;;;;;;;;;20.27;44.08;97266.00;5136171;27;19907;-29
2022/11/08 12:55:50;;;;;;;;;;;;;;;20.36;43.77;97259.66;5136120;27;19908;-29
2022/11/08 12:58:34;;;;;;;;;;;;;;;20.38;43.65;97269.00;5135890;27;19907;-30
2022/11/08 13:01:02;;;;;;;;;;;;;;;20.28;43.92;97253.72;5136054;27;19959;-29
2022/11/08 13:03:30;;;;;;;;;;;;;;;20.34;43.82;97257.34;5135935;27;20040;-29
2022/11/08 13:06:04;;;;;;;;;;;;;;;20.34;43.82;97262.09;5135696;27;19919;-29
2022/11/08 13:08:47;;;;;;;;;;;;;;;20.11;44.29;97258.13;5136197;27;19907;-29
2022/11/08 13:11:19;;;;;;;;;;;;;;;19.86;44.51;97255.84;5135903;27;20282;-31
2022/11/08 13:13:48;;;;;;;;;;;;;;;19.66;45.28;97259.91;5135127;27;20339;-29
2022/11/08 13:16:21;;;;;;;;;;;;;;;19.93;44.75;97255.50;5135554;27;19907;-29